createdAt,value
2022-10-01T00:00:53.410Z,8.66
2022-10-01T00:03:21.844Z,8.70
2022-10-01T00:05:58.981Z,8.75
2022-10-01T00:08:26.411Z,8.79
2022-10-01T00:10:53.266Z,8.83
2022-10-01T00:13:20.330Z,8.90
2022-10-01T00:15:47.313Z,8.95
2022-10-01T00:18:13.705Z,9.01
2022-10-01T00:20:44.501Z,9.05
2022-10-01T00:23:12.627Z,9.01
2022-10-01T00:25:40.098Z,8.98
2022-10-01T00:28:07.008Z,8.96
2022-10-01T00:30:37.209Z,8.96
2022-10-01T00:33:06.057Z,8.96
2022-10-01T00:35:32.429Z,8.99
2022-10-01T00:37:59.032Z,9.02
2022-10-01T00:40:25.556Z,9.09
2022-10-01T00:42:51.956Z,9.15
2022-10-01T00:45:18.433Z,9.16
2022-10-01T00:47:51.238Z,9.20
2022-10-01T00:50:23.829Z,9.21
2022-10-01T00:52:56.843Z,9.23
2022-10-01T00:55:30.934Z,9.26
2022-10-01T00:57:58.101Z,9.27
2022-10-01T01:00:25.110Z,9.26
2022-10-01T01:02:51.589Z,9.27
2022-10-01T01:05:18.866Z,9.26
2022-10-01T01:07:48.412Z,9.25
2022-10-01T01:10:17.243Z,9.26
2022-10-01T01:12:49.579Z,9.25
2022-10-01T01:15:28.234Z,9.25
2022-10-01T01:18:10.101Z,9.21
2022-10-01T01:20:45.296Z,9.21
2022-10-01T01:23:14.731Z,9.17
2022-10-01T01:25:48.014Z,9.14
2022-10-01T01:28:34.724Z,9.10
2022-10-01T01:31:07.885Z,9.05
2022-10-01T01:33:38.142Z,9.04
2022-10-01T01:36:10.696Z,9.00
2022-10-01T01:38:42.861Z,9.03
2022-10-01T01:41:11.512Z,8.98
2022-10-01T01:43:42.776Z,8.96
2022-10-01T01:46:11.526Z,8.94
2022-10-01T01:48:41.103Z,8.92
2022-10-01T01:51:31.440Z,8.87
2022-10-01T01:53:59.170Z,8.91
2022-10-01T01:56:26.062Z,8.88
2022-10-01T01:58:53.908Z,8.90
2022-10-01T02:01:43.506Z,8.88
2022-10-01T02:04:23.325Z,8.86
2022-10-01T02:07:08.426Z,8.86
2022-10-01T02:10:04.350Z,8.85
2022-10-01T02:12:55.587Z,8.85
2022-10-01T02:15:40.559Z,8.84
2022-10-01T02:18:18.932Z,8.83
2022-10-01T02:20:54.440Z,8.82
2022-10-01T02:23:31.172Z,8.84
2022-10-01T02:26:07.131Z,8.86
2022-10-01T02:28:35.748Z,8.86
2022-10-01T02:31:04.158Z,8.85
2022-10-01T02:33:34.379Z,8.86
2022-10-01T02:36:03.912Z,8.85
2022-10-01T02:38:32.777Z,8.83
2022-10-01T02:41:02.926Z,8.82
2022-10-01T02:43:38.318Z,8.81
2022-10-01T02:46:20.123Z,8.80
2022-10-01T02:48:47.970Z,8.78
2022-10-01T02:51:40.937Z,8.77
2022-10-01T02:54:14.458Z,8.78
2022-10-01T02:57:00.242Z,8.80
2022-10-01T02:59:26.626Z,8.82
2022-10-01T03:01:53.251Z,8.84
2022-10-01T03:04:19.954Z,8.87
2022-10-01T03:06:46.366Z,8.89
2022-10-01T03:09:13.688Z,8.89
2022-10-01T03:11:40.121Z,8.88
2022-10-01T03:14:07.302Z,8.88
2022-10-01T03:16:33.688Z,8.90
2022-10-01T03:19:00.108Z,8.90
2022-10-01T03:21:26.810Z,8.88
2022-10-01T03:23:53.178Z,8.85
2022-10-01T03:26:19.533Z,8.82
2022-10-01T03:28:45.947Z,8.78
2022-10-01T03:31:12.358Z,8.76
2022-10-01T03:33:39.465Z,8.77
2022-10-01T03:36:05.975Z,8.76
2022-10-01T03:38:32.358Z,8.78
2022-10-01T03:40:58.699Z,8.75
2022-10-01T03:43:26.982Z,8.73
2022-10-01T03:45:53.359Z,8.75
2022-10-01T03:48:19.776Z,8.74
2022-10-01T03:50:56.036Z,8.77
2022-10-01T03:53:22.700Z,8.77
2022-10-01T03:55:49.175Z,8.75
2022-10-01T03:58:15.985Z,8.72
2022-10-01T04:00:44.102Z,8.69
2022-10-01T04:03:11.116Z,8.63
2022-10-01T04:05:37.492Z,8.59
2022-10-01T04:08:03.932Z,8.56
2022-10-01T04:10:30.410Z,8.53
2022-10-01T04:12:56.830Z,8.47
2022-10-01T04:15:24.960Z,8.44
2022-10-01T04:17:51.510Z,8.32
2022-10-01T04:20:18.297Z,8.42
2022-10-01T04:22:46.021Z,8.43
2022-10-01T04:25:13.154Z,8.38
2022-10-01T04:27:41.304Z,8.41
2022-10-01T04:30:09.252Z,8.37
2022-10-01T04:32:37.229Z,8.37
2022-10-01T04:35:04.568Z,8.30
2022-10-01T04:37:31.117Z,8.27
2022-10-01T04:39:57.532Z,8.28
2022-10-01T04:42:23.888Z,8.26
2022-10-01T04:44:50.831Z,8.24
2022-10-01T04:47:17.357Z,8.23
2022-10-01T04:49:43.696Z,8.24
2022-10-01T04:52:11.108Z,8.23
2022-10-01T04:54:37.500Z,8.25
2022-10-01T04:57:03.913Z,8.24
2022-10-01T04:59:31.752Z,8.22
2022-10-01T05:01:58.159Z,8.23
2022-10-01T05:04:24.710Z,8.22
2022-10-01T05:06:51.122Z,8.22
2022-10-01T05:09:17.493Z,8.22
2022-10-01T05:11:43.861Z,8.22
2022-10-01T05:14:11.680Z,8.19
2022-10-01T05:16:38.101Z,8.16
2022-10-01T05:19:04.808Z,8.14
2022-10-01T05:21:32.105Z,8.12
2022-10-01T05:23:58.740Z,8.07
2022-10-01T05:26:25.224Z,8.07
2022-10-01T05:28:51.761Z,8.09
2022-10-01T05:31:18.659Z,8.09
2022-10-01T05:33:45.131Z,8.06
2022-10-01T05:36:11.541Z,8.05
2022-10-01T05:38:37.902Z,8.08
2022-10-01T05:41:04.831Z,8.05
2022-10-01T05:43:31.411Z,8.05
2022-10-01T05:46:01.962Z,8.07
2022-10-01T05:48:28.791Z,8.09
2022-10-01T05:50:55.152Z,8.12
2022-10-01T05:53:23.475Z,8.11
2022-10-01T05:55:49.821Z,8.14
2022-10-01T05:58:16.965Z,8.17
2022-10-01T06:00:43.811Z,8.18
2022-10-01T06:03:12.943Z,8.20
2022-10-01T06:05:39.481Z,8.23
2022-10-01T06:08:07.259Z,8.25
2022-10-01T06:10:33.645Z,8.28
2022-10-01T06:13:01.760Z,8.29
2022-10-01T06:15:29.341Z,8.32
2022-10-01T06:17:55.812Z,8.37
2022-10-01T06:20:22.207Z,8.44
2022-10-01T06:22:56.313Z,8.47
2022-10-01T06:25:23.131Z,8.49
2022-10-01T06:27:56.271Z,8.53
2022-10-01T06:30:22.718Z,8.54
2022-10-01T06:32:49.063Z,8.58
2022-10-01T06:35:15.516Z,8.61
2022-10-01T06:37:41.877Z,8.65
2022-10-01T06:40:08.954Z,8.68
2022-10-01T06:42:35.313Z,8.72
2022-10-01T06:45:01.716Z,8.71
2022-10-01T06:47:28.052Z,8.70
2022-10-01T06:49:54.431Z,8.72
2022-10-01T06:52:39.486Z,8.72
2022-10-01T06:55:06.417Z,8.75
2022-10-01T06:57:34.059Z,8.77
2022-10-01T07:00:00.567Z,8.79
2022-10-01T07:02:28.929Z,8.79
2022-10-01T07:04:59.371Z,8.81
2022-10-01T07:07:32.862Z,8.87
2022-10-01T07:09:59.299Z,8.88
2022-10-01T07:12:26.359Z,8.92
2022-10-01T07:14:53.306Z,8.90
2022-10-01T07:17:20.598Z,8.98
2022-10-01T07:19:46.933Z,9.00
2022-10-01T07:22:13.373Z,9.04
2022-10-01T07:24:39.770Z,9.06
2022-10-01T07:27:07.484Z,9.10
2022-10-01T07:29:34.526Z,9.15
2022-10-01T07:32:01.480Z,9.16
2022-10-01T07:34:30.885Z,9.17
2022-10-01T07:36:57.258Z,9.18
2022-10-01T07:39:23.765Z,9.20
2022-10-01T07:41:53.065Z,9.27
2022-10-01T07:44:19.870Z,9.33
2022-10-01T07:46:47.145Z,9.36
2022-10-01T07:49:13.766Z,9.36
2022-10-01T07:51:40.566Z,9.35
2022-10-01T07:54:07.115Z,9.34
2022-10-01T07:56:33.477Z,9.33
2022-10-01T07:58:59.851Z,9.37
2022-10-01T08:01:26.342Z,9.39
2022-10-01T08:03:53.020Z,9.40
2022-10-01T08:06:25.226Z,9.40
2022-10-01T08:08:52.716Z,9.39
2022-10-01T08:11:19.062Z,9.41
2022-10-01T08:13:45.761Z,9.41
2022-10-01T08:16:12.545Z,9.43
2022-10-01T08:18:40.613Z,9.40
2022-10-01T08:21:07.420Z,9.38
2022-10-01T08:23:34.503Z,9.40
2022-10-01T08:26:07.352Z,9.39
2022-10-01T08:28:35.324Z,9.39
2022-10-01T08:31:09.728Z,9.38
2022-10-01T08:33:38.003Z,9.37
2022-10-01T08:36:08.261Z,9.38
2022-10-01T08:38:40.067Z,9.39
2022-10-01T08:41:28.962Z,9.42
2022-10-01T08:43:55.449Z,9.41
2022-10-01T08:46:26.001Z,9.42
2022-10-01T08:49:17.748Z,9.44
2022-10-01T08:51:54.035Z,9.41
2022-10-01T08:54:32.444Z,9.42
2022-10-01T08:57:02.055Z,9.40
2022-10-01T08:59:43.035Z,9.40
2022-10-01T09:02:23.825Z,9.39
2022-10-01T09:05:01.276Z,9.35
2022-10-01T09:07:53.896Z,9.36
2022-10-01T09:10:46.826Z,9.37
2022-10-01T09:13:34.569Z,9.39
2022-10-01T09:16:24.021Z,9.41
2022-10-01T09:19:02.479Z,9.41
2022-10-01T09:22:10.776Z,9.45
2022-10-01T09:24:44.494Z,9.46
2022-10-01T09:27:25.988Z,9.47
2022-10-01T09:29:57.525Z,9.48
2022-10-01T09:32:30.989Z,9.47
2022-10-01T09:35:04.551Z,9.48
2022-10-01T09:37:44.857Z,9.48
2022-10-01T09:40:19.804Z,9.55
2022-10-01T09:42:47.959Z,9.57
2022-10-01T09:45:15.750Z,9.63
2022-10-01T09:47:46.385Z,9.64
2022-10-01T09:50:21.909Z,9.67
2022-10-01T09:52:51.191Z,9.69
2022-10-01T09:55:39.224Z,9.75
2022-10-01T09:58:13.335Z,9.77
2022-10-01T10:00:41.786Z,9.78
2022-10-01T10:03:08.385Z,9.83
2022-10-01T10:05:49.145Z,9.84
2022-10-01T10:08:35.492Z,9.80
2022-10-01T10:11:06.502Z,9.78
2022-10-01T10:13:39.056Z,9.80
2022-10-01T10:16:16.643Z,9.81
2022-10-01T10:18:49.055Z,9.81
2022-10-01T10:21:19.385Z,9.83
2022-10-01T10:23:49.391Z,9.83
2022-10-01T10:26:22.379Z,9.89
2022-10-01T10:28:48.947Z,9.88
2022-10-01T10:31:20.086Z,9.89
2022-10-01T10:33:49.476Z,9.90
2022-10-01T10:36:16.951Z,9.90
2022-10-01T10:38:49.550Z,9.92
2022-10-01T10:41:19.726Z,9.93
2022-10-01T10:43:49.089Z,9.93
2022-10-01T10:46:26.975Z,9.99
2022-10-01T10:48:59.916Z,10.01
2022-10-01T10:51:28.170Z,10.01
2022-10-01T10:53:54.592Z,9.98
2022-10-01T10:56:23.930Z,10.00
2022-10-01T10:58:51.948Z,10.03
2022-10-01T11:01:25.656Z,10.04
2022-10-01T11:03:58.216Z,10.05
2022-10-01T11:06:26.426Z,10.01
2022-10-01T11:09:07.913Z,9.99
2022-10-01T11:11:36.953Z,10.05
2022-10-01T11:14:23.847Z,10.04
2022-10-01T11:17:16.769Z,10.04
2022-10-01T11:20:20.976Z,10.06
2022-10-01T11:23:18.923Z,10.08
2022-10-01T11:26:01.041Z,10.11
2022-10-01T11:28:53.368Z,10.16
2022-10-01T11:31:40.283Z,10.21
2022-10-01T11:34:38.905Z,10.24
2022-10-01T11:37:33.636Z,10.22
2022-10-01T11:40:11.455Z,10.23
2022-10-01T11:42:38.009Z,10.27
2022-10-01T11:45:17.785Z,10.32
2022-10-01T11:47:50.114Z,10.37
2022-10-01T11:50:20.588Z,10.40
2022-10-01T11:53:18.470Z,10.42
2022-10-01T11:56:14.602Z,10.45
2022-10-01T11:59:03.124Z,10.41
2022-10-01T12:01:47.625Z,10.40
2022-10-01T12:04:33.253Z,10.38
2022-10-01T12:07:11.435Z,10.36
2022-10-01T12:09:53.425Z,10.38
2022-10-01T12:12:24.933Z,10.36
2022-10-01T12:15:06.773Z,10.38
2022-10-01T12:17:49.595Z,10.37
2022-10-01T12:20:41.238Z,10.33
2022-10-01T12:23:14.841Z,10.38
2022-10-01T12:26:03.096Z,10.40
2022-10-01T12:28:40.889Z,10.40
2022-10-01T12:31:21.697Z,10.38
2022-10-01T12:34:25.974Z,10.37
2022-10-01T12:37:10.159Z,10.40
2022-10-01T12:39:54.385Z,10.40
2022-10-01T12:42:49.452Z,10.42
2022-10-01T12:45:33.768Z,10.47
2022-10-01T12:48:15.671Z,10.51
2022-10-01T12:50:57.110Z,10.60
2022-10-01T12:53:43.639Z,10.65
2022-10-01T12:56:21.540Z,10.71
2022-10-01T12:59:06.346Z,10.74
2022-10-01T13:01:51.190Z,10.81
2022-10-01T13:04:33.471Z,10.89
2022-10-01T13:07:52.493Z,10.98
2022-10-01T13:10:32.159Z,11.01
2022-10-01T13:13:16.925Z,11.08
2022-10-01T13:15:49.499Z,11.11
2022-10-01T13:18:42.857Z,11.16
2022-10-01T13:21:24.917Z,11.23
2022-10-01T13:24:03.053Z,11.25
2022-10-01T13:26:45.721Z,11.29
2022-10-01T13:29:36.036Z,11.32
2022-10-01T13:32:25.673Z,11.34
2022-10-01T13:34:52.763Z,11.40
2022-10-01T13:37:33.328Z,11.48
2022-10-01T13:40:00.598Z,11.53
2022-10-01T13:42:30.149Z,11.64
2022-10-01T13:45:04.623Z,11.84
2022-10-01T13:47:33.846Z,11.98
2022-10-01T13:50:06.583Z,12.16
2022-10-01T13:52:34.069Z,12.39
2022-10-01T13:55:01.860Z,12.69
2022-10-01T13:57:37.086Z,12.90
2022-10-01T14:00:12.298Z,12.95
2022-10-01T14:02:42.183Z,13.01
2022-10-01T14:05:17.424Z,13.01
2022-10-01T14:07:47.635Z,13.07
2022-10-01T14:10:15.563Z,13.02
2022-10-01T14:13:04.499Z,12.97
2022-10-01T14:16:00.559Z,12.88
2022-10-01T14:18:32.972Z,12.83
2022-10-01T14:21:06.542Z,12.82
2022-10-01T14:23:48.226Z,12.82
2022-10-01T14:26:31.566Z,12.87
2022-10-01T14:29:23.013Z,12.91
2022-10-01T14:31:55.418Z,12.95
2022-10-01T14:34:38.929Z,12.99
2022-10-01T14:37:08.329Z,12.97
2022-10-01T14:39:34.754Z,12.96
2022-10-01T14:42:16.522Z,12.97
2022-10-01T14:44:46.952Z,12.95
2022-10-01T14:47:24.989Z,12.97
2022-10-01T14:49:51.870Z,12.98
2022-10-01T14:52:23.896Z,12.99
2022-10-01T14:54:56.480Z,13.00
2022-10-01T14:57:28.868Z,13.01
2022-10-01T14:59:57.507Z,13.00
2022-10-01T15:02:25.744Z,13.00
2022-10-01T15:04:56.438Z,12.98
2022-10-01T15:07:25.309Z,12.98
2022-10-01T15:09:51.725Z,12.96
2022-10-01T15:12:22.535Z,12.98
2022-10-01T15:14:53.826Z,12.96
2022-10-01T15:17:22.015Z,12.98
2022-10-01T15:19:52.087Z,12.95
2022-10-01T15:22:26.219Z,12.90
2022-10-01T15:24:57.730Z,12.91
2022-10-01T15:27:25.873Z,12.88
2022-10-01T15:29:56.451Z,12.88
2022-10-01T15:32:25.430Z,12.86
2022-10-01T15:34:55.109Z,12.80
2022-10-01T15:37:34.750Z,12.80
2022-10-01T15:40:03.804Z,12.75
2022-10-01T15:42:32.749Z,12.74
2022-10-01T15:45:08.274Z,12.72
2022-10-01T15:47:37.287Z,12.71
2022-10-01T15:50:16.029Z,12.68
2022-10-01T15:52:52.315Z,12.64
2022-10-01T15:55:30.498Z,12.63
2022-10-01T15:58:04.092Z,12.58
2022-10-01T16:00:33.862Z,12.57
2022-10-01T16:03:00.504Z,12.53
2022-10-01T16:05:35.402Z,12.53
2022-10-01T16:08:02.217Z,12.52
2022-10-01T16:10:37.725Z,12.52
2022-10-01T16:13:27.076Z,12.53
2022-10-01T16:16:29.719Z,12.52
2022-10-01T16:19:23.394Z,12.48
2022-10-01T16:22:19.630Z,12.44
2022-10-01T16:24:57.604Z,12.38
2022-10-01T16:27:26.572Z,12.38
2022-10-01T16:30:08.761Z,12.33
2022-10-01T16:32:35.729Z,12.35
2022-10-01T16:35:23.644Z,12.34
2022-10-01T16:37:51.890Z,12.31
2022-10-01T16:40:20.829Z,12.31
2022-10-01T16:42:50.466Z,12.27
2022-10-01T16:45:19.896Z,12.26
2022-10-01T16:47:46.618Z,12.25
2022-10-01T16:50:17.392Z,12.24
2022-10-01T16:52:44.398Z,12.26
2022-10-01T16:55:18.520Z,12.24
2022-10-01T16:57:44.879Z,12.24
2022-10-01T17:00:20.306Z,12.26
2022-10-01T17:02:46.954Z,12.24
2022-10-01T17:05:28.219Z,12.24
2022-10-01T17:07:59.242Z,12.22
2022-10-01T17:10:25.660Z,12.24
2022-10-01T17:12:52.081Z,12.26
2022-10-01T17:15:23.106Z,12.25
2022-10-01T17:17:49.469Z,12.25
2022-10-01T17:20:16.060Z,12.27
2022-10-01T17:22:45.768Z,12.27
2022-10-01T17:25:18.310Z,12.29
2022-10-01T17:27:45.187Z,12.28
2022-10-01T17:30:12.010Z,12.28
2022-10-01T17:32:40.036Z,12.28
2022-10-01T17:35:07.496Z,12.33
2022-10-01T17:37:34.459Z,12.35
2022-10-01T17:40:01.050Z,12.37
2022-10-01T17:42:27.510Z,12.35
2022-10-01T17:44:54.792Z,12.37
2022-10-01T17:47:21.171Z,12.37
2022-10-01T17:49:47.560Z,12.36
2022-10-01T17:52:13.968Z,12.34
2022-10-01T17:54:40.429Z,12.34
2022-10-01T17:57:11.713Z,12.34
2022-10-01T17:59:38.515Z,12.36
2022-10-01T18:02:23.475Z,12.32
2022-10-01T18:04:53.481Z,12.32
2022-10-01T18:07:20.347Z,12.31
2022-10-01T18:09:46.827Z,12.29
2022-10-01T18:12:14.009Z,12.28
2022-10-01T18:14:40.695Z,12.25
2022-10-01T18:17:07.102Z,12.25
2022-10-01T18:22:19.975Z,12.16
2022-10-01T18:24:46.403Z,12.20
2022-10-01T18:27:13.653Z,12.17
2022-10-01T18:29:40.105Z,12.17
2022-10-01T18:32:47.185Z,12.17
2022-10-01T18:35:43.638Z,12.17
2022-10-01T18:38:24.269Z,12.16
2022-10-01T18:41:04.464Z,12.18
2022-10-01T18:43:36.343Z,12.18
2022-10-01T18:46:08.061Z,12.16
2022-10-01T18:48:53.352Z,12.17
2022-10-01T18:51:40.107Z,12.13
2022-10-01T18:54:37.526Z,12.13
2022-10-01T18:57:21.036Z,12.09
2022-10-01T19:00:01.403Z,12.06
2022-10-01T19:02:59.173Z,12.04
2022-10-01T19:06:08.400Z,12.01
2022-10-01T19:09:04.481Z,12.01
2022-10-01T19:11:41.276Z,11.98
2022-10-01T19:14:39.449Z,11.96
2022-10-01T19:17:27.627Z,11.93
2022-10-01T19:20:09.909Z,11.90
2022-10-01T19:23:14.042Z,11.86
2022-10-01T19:25:47.312Z,11.84
2022-10-01T19:28:25.544Z,11.83
2022-10-01T19:31:13.059Z,11.82
2022-10-01T19:33:49.013Z,11.79
2022-10-01T19:36:25.119Z,11.78
2022-10-01T19:38:54.904Z,11.77
2022-10-01T19:41:31.769Z,11.74
2022-10-01T19:44:11.612Z,11.67
2022-10-01T19:46:45.780Z,11.75
2022-10-01T19:49:19.243Z,11.75
2022-10-01T19:51:51.889Z,11.71
2022-10-01T19:54:22.198Z,11.70
2022-10-01T19:56:57.909Z,11.70
2022-10-01T19:59:24.322Z,11.70
2022-10-01T20:01:54.550Z,11.71
2022-10-01T20:04:37.988Z,11.70
2022-10-01T20:07:29.659Z,11.71
2022-10-01T20:10:22.383Z,11.69
2022-10-01T20:12:58.758Z,11.66
2022-10-01T20:16:02.909Z,11.67
2022-10-01T20:18:32.276Z,11.66
2022-10-01T20:21:17.393Z,11.66
2022-10-01T20:23:57.583Z,11.67
2022-10-01T20:26:47.573Z,11.72
2022-10-01T20:29:16.708Z,11.74
2022-10-01T20:32:01.879Z,11.75
2022-10-01T20:34:28.421Z,11.76
2022-10-01T20:37:07.953Z,11.73
2022-10-01T20:39:41.326Z,11.81
2022-10-01T20:42:16.138Z,11.85
2022-10-01T20:44:43.678Z,11.90
2022-10-01T20:47:26.621Z,11.94
2022-10-01T20:50:29.475Z,11.91
2022-10-01T20:53:14.989Z,12.00
2022-10-01T20:55:47.313Z,12.02
2022-10-01T20:58:24.862Z,12.04
2022-10-01T21:00:58.324Z,12.07
2022-10-01T21:03:34.018Z,12.10
2022-10-01T21:06:10.971Z,12.12
2022-10-01T21:08:40.608Z,12.16
2022-10-01T21:11:17.543Z,12.18
2022-10-01T21:14:00.970Z,12.19
2022-10-01T21:16:46.538Z,12.20
2022-10-01T21:19:26.738Z,12.17
2022-10-01T21:22:01.191Z,12.18
2022-10-01T21:24:46.090Z,12.14
2022-10-01T21:27:48.774Z,12.13
2022-10-01T21:30:18.081Z,12.12
2022-10-01T21:33:13.222Z,12.11
2022-10-01T21:35:45.383Z,12.10
2022-10-01T21:38:30.601Z,12.11
2022-10-01T21:41:23.002Z,12.10
2022-10-01T21:44:15.323Z,12.10
2022-10-01T21:47:03.190Z,12.09
2022-10-01T21:49:53.981Z,12.07
2022-10-01T21:52:32.465Z,12.06
2022-10-01T21:55:12.518Z,12.07
2022-10-01T21:57:57.580Z,12.12
2022-10-01T22:00:28.669Z,12.15
2022-10-01T22:03:19.556Z,12.19
2022-10-01T22:05:58.811Z,12.20
2022-10-01T22:08:47.044Z,12.21
2022-10-01T22:11:17.304Z,12.20
2022-10-01T22:14:04.775Z,12.17
2022-10-01T22:16:39.814Z,12.22
2022-10-01T22:19:21.272Z,12.23
2022-10-01T22:21:55.843Z,12.20
2022-10-01T22:24:28.394Z,12.23
2022-10-01T22:27:12.462Z,12.21
2022-10-01T22:29:44.377Z,12.20
2022-10-01T22:32:13.637Z,12.16
2022-10-01T22:34:54.231Z,12.17
2022-10-01T22:37:27.642Z,12.15
2022-10-01T22:40:13.122Z,12.10
2022-10-01T22:42:46.514Z,12.07
2022-10-01T22:45:15.605Z,12.07
2022-10-01T22:47:55.840Z,12.07
2022-10-01T22:51:00.213Z,12.04
2022-10-01T22:53:45.109Z,12.04
2022-10-01T22:56:19.212Z,12.04
2022-10-01T22:58:59.144Z,12.05
2022-10-01T23:01:42.189Z,12.05
2022-10-01T23:04:28.124Z,12.06
2022-10-01T23:07:18.440Z,12.04
2022-10-01T23:09:49.744Z,11.98
2022-10-01T23:12:18.804Z,11.98
2022-10-01T23:15:20.080Z,11.92
2022-10-01T23:18:09.768Z,11.87
2022-10-01T23:21:06.408Z,11.89
2022-10-01T23:23:33.640Z,11.88
2022-10-01T23:26:37.584Z,11.86
2022-10-01T23:29:39.812Z,11.87
2022-10-01T23:32:43.304Z,11.87
2022-10-01T23:35:18.600Z,11.88
2022-10-01T23:38:08.702Z,11.89
2022-10-01T23:40:41.462Z,11.93
2022-10-01T23:43:41.157Z,11.94
2022-10-01T23:46:18.874Z,11.94
2022-10-01T23:48:55.194Z,11.94
2022-10-01T23:51:26.549Z,11.92
2022-10-01T23:54:02.026Z,11.95
2022-10-01T23:56:49.750Z,11.92
2022-10-01T23:59:19.255Z,11.93
